createdAt,value
2023-04-01T00:01:24.281Z,0.30
2023-04-01T00:03:51.388Z,0.20
2023-04-01T00:06:20.034Z,0.20
2023-04-01T00:08:47.622Z,0.28
2023-04-01T00:11:16.003Z,0.20
2023-04-01T00:13:43.364Z,0.20
2023-04-01T00:16:19.852Z,0.20
2023-04-01T00:18:48.860Z,0.28
2023-04-01T00:21:16.198Z,0.45
2023-04-01T00:23:42.913Z,0.30
2023-04-01T00:26:10.537Z,0.40
2023-04-01T00:28:38.209Z,0.25
2023-04-01T00:31:10.122Z,0.20
2023-04-01T00:33:36.920Z,0.30
2023-04-01T00:36:18.098Z,0.22
2023-04-01T00:38:45.717Z,0.10
2023-04-01T00:41:17.977Z,0.20
2023-04-01T00:43:47.598Z,0.20
2023-04-01T00:46:14.295Z,0.30
2023-04-01T00:48:46.516Z,0.20
2023-04-01T00:51:18.540Z,0.30
2023-04-01T00:53:48.532Z,0.28
2023-04-01T00:56:31.373Z,0.20
2023-04-01T00:59:30.510Z,0.10
2023-04-01T01:01:57.376Z,0.30
2023-04-01T01:04:26.897Z,0.40
2023-04-01T01:06:56.928Z,0.43
2023-04-01T01:09:40.711Z,0.22
2023-04-01T01:12:14.295Z,0.38
2023-04-01T01:14:46.963Z,0.40
2023-04-01T01:17:41.893Z,0.20
2023-04-01T01:20:35.893Z,0.30
2023-04-01T01:23:06.480Z,0.30
2023-04-01T01:25:45.669Z,0.20
2023-04-01T01:28:45.608Z,0.20
2023-04-01T01:31:27.298Z,0.20
2023-04-01T01:34:17.486Z,0.22
2023-04-01T01:36:46.767Z,0.20
2023-04-01T01:39:14.943Z,0.20
2023-04-01T01:41:46.055Z,0.10
2023-04-01T01:44:16.267Z,0.20
2023-04-01T01:46:44.848Z,0.13
2023-04-01T01:49:13.888Z,0.30
2023-04-01T01:51:40.934Z,0.10
2023-04-01T01:54:18.364Z,0.20
2023-04-01T01:56:49.768Z,0.20
2023-04-01T01:59:18.929Z,0.20
2023-04-01T02:01:51.083Z,0.10
2023-04-01T02:04:19.352Z,0.10
2023-04-01T02:06:53.524Z,0.10
2023-04-01T02:09:20.825Z,0.20
2023-04-01T02:11:57.200Z,0.20
2023-04-01T02:14:27.895Z,0.30
2023-04-01T02:17:04.017Z,0.10
2023-04-01T02:19:38.615Z,0.10
2023-04-01T02:22:09.879Z,0.30
2023-04-01T02:24:38.959Z,0.20
2023-04-01T02:27:05.977Z,0.17
2023-04-01T02:29:33.215Z,0.10
2023-04-01T02:32:01.003Z,0.20
2023-04-01T02:34:28.125Z,0.10
2023-04-01T02:36:57.798Z,0.10
2023-04-01T02:39:26.640Z,0.20
2023-04-01T02:41:53.891Z,0.05
2023-04-01T02:44:20.728Z,0.10
2023-04-01T02:46:47.484Z,0.20
2023-04-01T02:49:14.098Z,0.10
2023-04-01T02:51:40.858Z,0.10
2023-04-01T02:54:07.729Z,0.10
2023-04-01T02:56:34.344Z,0.10
2023-04-01T02:59:01.045Z,0.20
2023-04-01T03:01:27.724Z,0.10
2023-04-01T03:03:54.629Z,0.10
2023-04-01T03:06:21.217Z,0.10
2023-04-01T03:08:47.905Z,0.10
2023-04-01T03:11:15.010Z,0.10
2023-04-01T03:13:42.248Z,0.13
2023-04-01T03:16:09.923Z,0.10
2023-04-01T03:18:36.598Z,0.10
2023-04-01T03:21:15.727Z,0.10
2023-04-01T03:23:42.359Z,0.10
2023-04-01T03:26:09.347Z,0.10
2023-04-01T03:28:36.399Z,0.10
2023-04-01T03:31:03.501Z,0.10
2023-04-01T03:33:37.416Z,0.15
2023-04-01T03:36:07.365Z,0.10
2023-04-01T03:38:35.736Z,0.20
2023-04-01T03:41:02.746Z,0.10
2023-04-01T03:43:30.243Z,0.10
2023-04-01T03:45:58.911Z,0.20
2023-04-01T03:48:26.729Z,0.20
2023-04-01T03:50:53.986Z,0.20
2023-04-01T03:53:20.879Z,0.20
2023-04-01T03:55:48.249Z,0.30
2023-04-01T03:58:15.658Z,0.20
2023-04-01T04:00:42.769Z,0.20
2023-04-01T04:03:10.537Z,0.40
2023-04-01T04:05:37.570Z,0.10
2023-04-01T04:08:04.795Z,0.10
2023-04-01T04:10:32.080Z,0.20
2023-04-01T04:12:58.858Z,0.30
2023-04-01T04:15:28.372Z,0.10
2023-04-01T04:17:55.088Z,0.10
2023-04-01T04:20:21.884Z,0.10
2023-04-01T04:22:48.766Z,0.10
2023-04-01T04:25:15.857Z,0.17
2023-04-01T04:27:42.705Z,0.10
2023-04-01T04:30:12.404Z,0.10
2023-04-01T04:32:39.357Z,0.30
2023-04-01T04:35:07.456Z,0.20
2023-04-01T04:37:34.797Z,0.20
2023-04-01T04:40:01.645Z,0.10
2023-04-01T04:42:29.184Z,0.25
2023-04-01T04:47:27.983Z,0.20
2023-04-01T04:49:54.609Z,0.17
2023-04-01T04:52:21.364Z,0.10
2023-04-01T04:54:48.131Z,0.20
2023-04-01T04:57:14.992Z,0.10
2023-04-01T04:59:48.454Z,0.10
2023-04-01T05:02:26.373Z,0.20
2023-04-01T05:04:53.145Z,0.22
2023-04-01T05:07:19.837Z,0.40
2023-04-01T05:09:46.860Z,0.28
2023-04-01T05:12:14.457Z,0.17
2023-04-01T05:15:01.210Z,0.20
2023-04-01T05:17:28.436Z,0.10
2023-04-01T05:19:55.090Z,0.10
2023-04-01T05:22:21.741Z,0.20
2023-04-01T05:24:48.692Z,0.17
2023-04-01T05:27:15.475Z,0.20
2023-04-01T05:29:43.130Z,0.50
2023-04-01T05:32:25.616Z,0.20
2023-04-01T05:34:53.051Z,0.40
2023-04-01T05:37:20.359Z,0.20
2023-04-01T05:39:46.977Z,0.20
2023-04-01T05:42:13.916Z,0.40
2023-04-01T05:44:41.232Z,0.20
2023-04-01T05:47:07.979Z,0.20
2023-04-01T05:49:35.117Z,0.38
2023-04-01T05:52:02.838Z,0.60
2023-04-01T05:54:30.762Z,0.22
2023-04-01T05:56:57.450Z,0.30
2023-04-01T05:59:24.071Z,0.30
2023-04-01T06:01:51.334Z,0.30
2023-04-01T06:04:19.144Z,0.30
2023-04-01T06:06:46.691Z,0.10
2023-04-01T06:09:19.624Z,0.30
2023-04-01T06:12:11.028Z,0.20
2023-04-01T06:15:11.638Z,0.20
2023-04-01T06:17:54.040Z,0.10
2023-04-01T06:20:52.759Z,0.38
2023-04-01T06:23:45.614Z,0.20
2023-04-01T06:26:38.924Z,0.10
2023-04-01T06:29:44.247Z,0.30
2023-04-01T06:32:31.985Z,0.20
2023-04-01T06:35:17.766Z,0.20
2023-04-01T06:37:50.651Z,0.10
2023-04-01T06:40:42.489Z,0.30
2023-04-01T06:44:01.949Z,0.10
2023-04-01T06:47:04.639Z,0.30
2023-04-01T06:50:05.012Z,0.10
2023-04-01T06:53:11.389Z,0.17
2023-04-01T06:56:10.993Z,0.20
2023-04-01T07:01:43.761Z,0.30
2023-04-01T07:04:20.525Z,0.30
2023-04-01T07:07:05.476Z,0.20
2023-04-01T07:09:36.528Z,0.20
2023-04-01T07:12:37.108Z,0.20
2023-04-01T07:15:37.589Z,0.20
2023-04-01T07:18:12.023Z,0.25
2023-04-01T07:20:39.562Z,0.20
2023-04-01T07:23:30.241Z,0.10
2023-04-01T07:26:25.273Z,0.20
2023-04-01T07:29:14.329Z,0.05
2023-04-01T07:31:49.693Z,0.10
2023-04-01T07:34:50.209Z,0.10
2023-04-01T07:37:46.712Z,0.10
2023-04-01T07:40:22.707Z,0.13
2023-04-01T07:43:04.520Z,0.10
2023-04-01T07:45:52.642Z,0.10
2023-04-01T07:48:44.261Z,0.20
2023-04-01T07:51:14.103Z,0.40
2023-04-01T07:53:59.153Z,0.20
2023-04-01T07:57:03.115Z,0.22
2023-04-01T08:00:10.479Z,0.10
2023-04-01T08:02:54.205Z,0.03
2023-04-01T08:05:28.492Z,0.10
2023-04-01T08:08:34.221Z,0.10
2023-04-01T08:11:43.176Z,0.10
2023-04-01T08:14:47.217Z,0.17
2023-04-01T08:17:22.645Z,0.20
2023-04-01T08:19:59.643Z,0.10
2023-04-01T08:22:36.457Z,0.10
2023-04-01T08:25:14.736Z,0.10
2023-04-01T08:28:11.526Z,0.10
2023-04-01T08:30:53.675Z,0.30
2023-04-01T08:33:31.152Z,0.10
2023-04-01T08:36:15.372Z,0.10
2023-04-01T08:38:52.923Z,0.10
2023-04-01T08:41:19.938Z,0.13
2023-04-01T08:44:37.593Z,0.10
2023-04-01T08:47:32.660Z,0.15
2023-04-01T08:50:25.930Z,0.10
2023-04-01T08:53:11.461Z,0.28
2023-04-01T08:56:04.687Z,0.10
2023-04-01T08:58:52.986Z,0.10
2023-04-01T09:01:59.169Z,0.10
2023-04-01T09:04:56.283Z,0.00
2023-04-01T09:07:42.313Z,0.28
2023-04-01T09:10:31.259Z,0.10
2023-04-01T09:13:14.377Z,0.10
2023-04-01T09:16:08.630Z,0.30
2023-04-01T09:18:50.045Z,0.10
2023-04-01T09:21:20.396Z,0.10
2023-04-01T09:23:59.475Z,0.10
2023-04-01T09:26:54.716Z,0.10
2023-04-01T09:29:53.791Z,0.20
2023-04-01T09:32:39.279Z,0.00
2023-04-01T09:35:26.646Z,0.00
2023-04-01T09:38:15.318Z,0.10
2023-04-01T09:40:57.579Z,0.10
2023-04-01T09:44:13.321Z,0.15
2023-04-01T09:47:08.265Z,0.10
2023-04-01T09:49:41.205Z,0.00
2023-04-01T09:52:16.084Z,0.10
2023-04-01T09:55:01.243Z,0.10
2023-04-01T09:57:39.714Z,0.10
2023-04-01T10:03:41.927Z,0.13
2023-04-01T10:06:52.646Z,0.10
2023-04-01T10:12:03.269Z,0.10
2023-04-01T10:14:53.881Z,0.10
2023-04-01T10:17:36.131Z,0.10
2023-04-01T10:20:38.276Z,0.10
2023-04-01T10:23:23.108Z,0.00
2023-04-01T10:26:08.058Z,0.15
2023-04-01T10:29:13.434Z,0.00
2023-04-01T10:32:17.030Z,0.10
2023-04-01T10:34:55.846Z,0.00
2023-04-01T10:37:59.974Z,0.00
2023-04-01T10:40:28.115Z,0.05
2023-04-01T10:43:28.602Z,0.03
2023-04-01T10:46:23.395Z,0.00
2023-04-01T10:49:29.346Z,0.00
2023-04-01T10:52:23.966Z,0.10
2023-04-01T10:56:11.877Z,0.10
2023-04-01T10:59:13.711Z,0.10
2023-04-01T11:02:21.203Z,0.00
2023-04-01T11:05:59.008Z,0.10
2023-04-01T11:08:34.174Z,0.10
2023-04-01T11:11:10.482Z,0.17
2023-04-01T11:14:15.998Z,0.10
2023-04-01T11:17:04.586Z,0.10
2023-04-01T11:19:31.611Z,0.00
2023-04-01T11:21:58.114Z,0.03
2023-04-01T11:25:05.396Z,0.03
2023-04-01T11:28:03.393Z,0.10
2023-04-01T11:31:08.313Z,0.20
2023-04-01T11:33:44.420Z,0.13
2023-04-01T11:36:29.657Z,0.20
2023-04-01T11:39:02.760Z,0.10
2023-04-01T11:42:10.524Z,0.20
2023-04-01T11:45:14.482Z,0.15
2023-04-01T11:48:00.776Z,0.10
2023-04-01T11:51:01.439Z,0.10
2023-04-01T11:53:38.918Z,0.10
2023-04-01T11:56:20.912Z,0.10
2023-04-01T11:58:56.899Z,0.10
2023-04-01T12:01:49.519Z,0.10
2023-04-01T12:04:37.882Z,0.10
2023-04-01T12:07:13.674Z,0.10
2023-04-01T12:09:50.754Z,0.10
2023-04-01T12:12:26.656Z,0.20
2023-04-01T12:15:18.071Z,0.22
2023-04-01T12:17:56.525Z,0.40
2023-04-01T12:20:31.605Z,0.40
2023-04-01T12:23:18.687Z,0.20
2023-04-01T12:26:13.397Z,0.20
2023-04-01T12:28:55.463Z,0.20
2023-04-01T12:31:34.220Z,0.20
2023-04-01T12:34:31.387Z,0.20
2023-04-01T12:37:13.877Z,0.10
2023-04-01T12:40:09.882Z,0.20
2023-04-01T12:42:55.119Z,0.20
2023-04-01T12:46:13.374Z,0.13
2023-04-01T12:49:12.082Z,0.20
2023-04-01T12:51:57.229Z,0.30
2023-04-01T12:54:37.716Z,0.20
2023-04-01T12:57:18.950Z,0.30
2023-04-01T13:00:09.376Z,0.40
2023-04-01T13:03:17.205Z,0.20
2023-04-01T13:06:25.078Z,0.40
2023-04-01T13:09:08.310Z,0.20
2023-04-01T13:12:24.073Z,0.22
2023-04-01T13:15:12.662Z,0.20
2023-04-01T13:17:48.420Z,0.20
2023-04-01T13:20:33.789Z,0.20
2023-04-01T13:23:22.442Z,0.50
2023-04-01T13:26:10.816Z,0.17
2023-04-01T13:29:03.319Z,0.20
2023-04-01T13:31:42.347Z,0.10
2023-04-01T13:34:38.524Z,0.10
2023-04-01T13:37:20.147Z,0.13
2023-04-01T13:40:16.860Z,0.10
2023-04-01T13:43:15.351Z,0.35
2023-04-01T13:46:04.056Z,0.10
2023-04-01T13:48:51.381Z,0.20
2023-04-01T13:51:24.113Z,0.20
2023-04-01T13:53:56.657Z,0.10
2023-04-01T13:56:53.989Z,0.10
2023-04-01T13:59:41.588Z,0.10
2023-04-01T14:02:32.818Z,0.10
2023-04-01T14:05:43.298Z,0.30
2023-04-01T14:08:29.336Z,0.10
2023-04-01T14:10:59.006Z,0.10
2023-04-01T14:13:40.416Z,0.30
2023-04-01T14:16:44.864Z,0.08
2023-04-01T14:19:47.727Z,0.10
2023-04-01T14:22:39.053Z,0.20
2023-04-01T14:25:30.524Z,0.20
2023-04-01T14:28:05.953Z,0.10
2023-04-01T14:31:04.936Z,1.25
2023-04-01T14:34:15.816Z,0.22
2023-04-01T14:37:16.020Z,0.10
2023-04-01T14:40:21.418Z,0.10
2023-04-01T14:43:10.933Z,0.10
2023-04-01T14:46:08.493Z,0.10
2023-04-01T14:48:44.286Z,0.20
2023-04-01T14:51:16.924Z,0.20
2023-04-01T14:54:04.561Z,0.10
2023-04-01T14:56:48.086Z,0.10
2023-04-01T14:59:40.006Z,0.10
2023-04-01T15:05:06.606Z,0.10
2023-04-01T15:08:00.980Z,0.10
2023-04-01T15:10:50.626Z,0.17
2023-04-01T15:13:38.682Z,0.10
2023-04-01T15:16:11.396Z,0.30
2023-04-01T15:18:50.466Z,0.40
2023-04-01T15:21:35.004Z,0.05
2023-04-01T15:24:13.910Z,0.10
2023-04-01T15:26:49.414Z,0.20
2023-04-01T15:29:25.435Z,0.20
2023-04-01T15:32:02.169Z,0.20
2023-04-01T15:34:44.699Z,0.10
2023-04-01T15:37:40.081Z,0.08
2023-04-01T15:40:23.517Z,0.28
2023-04-01T15:43:14.427Z,0.10
2023-04-01T15:45:59.692Z,0.10
2023-04-01T15:48:34.752Z,0.17
2023-04-01T15:51:10.457Z,0.10
2023-04-01T15:53:55.505Z,0.10
2023-04-01T15:56:43.669Z,0.10
2023-04-01T15:59:34.253Z,0.10
2023-04-01T16:02:22.741Z,0.08
2023-04-01T16:04:51.972Z,0.15
2023-04-01T16:07:40.457Z,0.10
2023-04-01T16:10:07.199Z,0.20
2023-04-01T16:13:09.397Z,0.10
2023-04-01T16:15:45.637Z,0.20
2023-04-01T16:18:25.792Z,0.32
2023-04-01T16:21:02.269Z,0.35
2023-04-01T16:23:50.373Z,0.20
2023-04-01T16:26:27.594Z,0.30
2023-04-01T16:29:18.174Z,0.10
2023-04-01T16:31:52.649Z,0.10
2023-04-01T16:34:31.356Z,0.03
2023-04-01T16:37:16.841Z,0.20
2023-04-01T16:40:02.404Z,0.57
2023-04-01T16:42:32.178Z,0.20
2023-04-01T16:45:20.756Z,0.50
2023-04-01T16:47:53.988Z,0.13
2023-04-01T16:50:24.559Z,0.20
2023-04-01T16:53:12.199Z,0.10
2023-04-01T16:55:55.268Z,0.20
2023-04-01T16:58:26.465Z,0.10
2023-04-01T17:01:08.044Z,0.40
2023-04-01T17:03:44.709Z,0.10
2023-04-01T17:06:27.176Z,0.40
2023-04-01T17:09:30.179Z,0.50
2023-04-01T17:12:06.186Z,0.60
2023-04-01T17:15:02.550Z,4.72
2023-04-01T17:18:03.165Z,2.83
2023-04-01T17:20:30.008Z,0.70
2023-04-01T17:23:02.849Z,0.70
2023-04-01T17:25:47.708Z,0.20
2023-04-01T17:28:46.900Z,0.35
2023-04-01T17:31:36.572Z,0.20
2023-04-01T17:34:18.336Z,0.28
2023-04-01T17:39:43.922Z,0.30
2023-04-01T17:42:20.465Z,0.30
2023-04-01T17:44:59.383Z,0.20
2023-04-01T17:47:26.244Z,0.30
2023-04-01T17:50:44.452Z,0.30
2023-04-01T17:53:32.339Z,0.10
2023-04-01T17:56:05.115Z,0.20
2023-04-01T17:58:46.299Z,0.30
2023-04-01T18:01:48.394Z,0.30
2023-04-01T18:07:39.830Z,0.40
2023-04-01T18:10:24.912Z,0.28
2023-04-01T18:13:13.032Z,0.30
2023-04-01T18:16:09.409Z,0.40
2023-04-01T18:18:54.606Z,0.40
2023-04-01T18:21:30.562Z,0.30
2023-04-01T18:24:02.634Z,0.40
2023-04-01T18:26:34.328Z,0.50
2023-04-01T18:31:44.322Z,0.25
2023-04-01T18:34:32.295Z,0.30
2023-04-01T18:37:19.899Z,0.20
2023-04-01T18:39:55.721Z,0.10
2023-04-01T18:42:25.449Z,0.17
2023-04-01T18:44:57.031Z,0.20
2023-04-01T18:50:43.543Z,0.20
2023-04-01T18:53:35.373Z,0.30
2023-04-01T18:56:07.966Z,0.40
2023-04-01T18:59:13.025Z,0.20
2023-04-01T19:01:45.396Z,0.32
2023-04-01T19:04:22.352Z,0.30
2023-04-01T19:06:55.760Z,0.40
2023-04-01T19:09:27.585Z,0.20
2023-04-01T19:12:20.025Z,0.60
2023-04-01T19:15:09.949Z,0.40
2023-04-01T19:17:56.149Z,0.30
2023-04-01T19:20:25.883Z,0.50
2023-04-01T19:23:02.186Z,0.30
2023-04-01T19:25:33.661Z,0.80
2023-04-01T19:28:18.430Z,1.30
2023-04-01T19:31:03.559Z,0.80
2023-04-01T19:33:42.348Z,0.73
2023-04-01T19:36:27.550Z,1.85
2023-04-01T19:39:20.890Z,0.85
2023-04-01T19:41:52.671Z,0.60
2023-04-01T19:47:17.119Z,0.70
2023-04-01T19:50:25.136Z,0.32
2023-04-01T19:52:55.909Z,0.30
2023-04-01T19:55:31.932Z,0.55
2023-04-01T19:57:58.800Z,0.30
2023-04-01T20:00:30.594Z,0.30
2023-04-01T20:05:41.308Z,0.20
2023-04-01T20:08:26.984Z,0.50
2023-04-01T20:11:05.951Z,0.40
2023-04-01T20:13:39.461Z,0.50
2023-04-01T20:16:10.421Z,0.70
2023-04-01T20:18:49.817Z,0.40
2023-04-01T20:21:23.826Z,0.60
2023-04-01T20:24:07.367Z,0.60
2023-04-01T20:26:40.437Z,0.30
2023-04-01T20:29:25.932Z,0.65
2023-04-01T20:32:23.637Z,0.25
2023-04-01T20:34:55.113Z,0.50
2023-04-01T20:37:46.448Z,0.73
2023-04-01T20:40:41.313Z,0.40
2023-04-01T20:43:42.782Z,0.38
2023-04-01T20:46:18.096Z,0.20
2023-04-01T20:49:11.772Z,0.40
2023-04-01T20:51:48.892Z,0.30
2023-04-01T20:54:52.943Z,0.30
2023-04-01T20:57:52.526Z,0.25
2023-04-01T21:00:48.665Z,0.30
2023-04-01T21:03:35.431Z,0.35
2023-04-01T21:06:14.236Z,0.40
2023-04-01T21:08:56.090Z,1.08
2023-04-01T21:14:12.290Z,0.50
2023-04-01T21:16:49.855Z,0.57
2023-04-01T21:19:22.431Z,0.50
2023-04-01T21:21:58.197Z,0.20
2023-04-01T21:24:30.926Z,0.30
2023-04-01T21:27:27.196Z,0.20
2023-04-01T21:30:32.422Z,0.55
2023-04-01T21:33:31.422Z,0.40
2023-04-01T21:36:01.282Z,0.30
2023-04-01T21:38:49.666Z,0.30
2023-04-01T21:41:19.227Z,2.10
2023-04-01T21:43:57.981Z,3.05
2023-04-01T21:46:39.701Z,2.10
2023-04-01T21:49:39.939Z,0.93
2023-04-01T21:52:21.740Z,0.20
2023-04-01T21:54:51.142Z,0.68
2023-04-01T21:57:39.510Z,1.88
2023-04-01T22:00:19.741Z,2.53
2023-04-01T22:03:04.165Z,2.88
2023-04-01T22:05:50.510Z,2.45
2023-04-01T22:08:46.191Z,0.77
2023-04-01T22:11:27.126Z,0.57
2023-04-01T22:14:42.916Z,0.45
2023-04-01T22:17:41.980Z,0.20
2023-04-01T22:20:24.960Z,0.22
2023-04-01T22:23:22.790Z,0.30
2023-04-01T22:26:06.662Z,0.32
2023-04-01T22:28:41.770Z,0.40
2023-04-01T22:31:13.458Z,0.20
2023-04-01T22:33:54.185Z,0.15
2023-04-01T22:36:33.925Z,0.20
2023-04-01T22:39:05.495Z,0.20
2023-04-01T22:44:40.415Z,0.20
2023-04-01T22:47:31.623Z,0.20
2023-04-01T22:50:18.785Z,0.13
2023-04-01T22:52:49.373Z,0.20
2023-04-01T22:55:24.952Z,0.10
2023-04-01T22:57:58.069Z,0.20
2023-04-01T23:00:55.672Z,0.20
2023-04-01T23:03:28.533Z,0.20
2023-04-01T23:05:58.274Z,0.20
2023-04-01T23:08:43.359Z,0.30
2023-04-01T23:11:16.286Z,0.30
2023-04-01T23:13:49.430Z,0.20
2023-04-01T23:16:19.456Z,0.20
2023-04-01T23:19:10.731Z,0.10
2023-04-01T23:21:47.888Z,0.20
2023-04-01T23:24:31.021Z,0.63
2023-04-01T23:27:40.319Z,0.20
2023-04-01T23:30:39.420Z,0.40
2023-04-01T23:33:20.679Z,0.20
2023-04-01T23:35:49.785Z,0.20
2023-04-01T23:38:17.188Z,0.25
2023-04-01T23:40:44.153Z,0.10
2023-04-01T23:43:32.197Z,0.20
2023-04-01T23:46:04.423Z,0.10
2023-04-01T23:48:50.169Z,0.20
2023-04-01T23:51:39.929Z,0.25
2023-04-01T23:54:22.763Z,0.20
2023-04-01T23:56:53.542Z,0.30
2023-04-01T23:59:28.553Z,0.30
